sensor_id;sensor_type;location;lat;lon;timestamp;temperature;humidity
41471;DHT22;27211;51.220;5.308;2023-08-06T00:01:17;16.80;99.90
41471;DHT22;27211;51.220;5.308;2023-08-06T00:03:46;16.80;99.90
41471;DHT22;27211;51.220;5.308;2023-08-06T00:06:12;16.50;99.90
41471;DHT22;27211;51.220;5.308;2023-08-06T00:08:37;16.30;99.90
41471;DHT22;27211;51.220;5.308;2023-08-06T00:11:03;16.50;99.90
41471;DHT22;27211;51.220;5.308;2023-08-06T00:13:28;16.70;99.90
41471;DHT22;27211;51.220;5.308;2023-08-06T00:15:55;16.50;99.90
41471;DHT22;27211;51.220;5.308;2023-08-06T00:18:20;16.40;99.90
41471;DHT22;27211;51.220;5.308;2023-08-06T00:20:46;16.40;99.90
41471;DHT22;27211;51.220;5.308;2023-08-06T00:23:12;16.60;99.90
41471;DHT22;27211;51.220;5.308;2023-08-06T00:25:37;16.50;99.90
41471;DHT22;27211;51.220;5.308;2023-08-06T00:28:03;16.70;99.90
41471;DHT22;27211;51.220;5.308;2023-08-06T00:30:29;16.70;99.90
41471;DHT22;27211;51.220;5.308;2023-08-06T00:32:55;16.20;99.90
41471;DHT22;27211;51.220;5.308;2023-08-06T00:35:21;16.20;99.90
41471;DHT22;27211;51.220;5.308;2023-08-06T00:37:47;16.30;99.90
41471;DHT22;27211;51.220;5.308;2023-08-06T00:40:12;16.60;99.90
41471;DHT22;27211;51.220;5.308;2023-08-06T00:42:38;16.50;99.90
41471;DHT22;27211;51.220;5.308;2023-08-06T00:45:04;16.80;99.90
41471;DHT22;27211;51.220;5.308;2023-08-06T00:47:29;16.80;99.90
41471;DHT22;27211;51.220;5.308;2023-08-06T00:49:56;16.80;99.90
41471;DHT22;27211;51.220;5.308;2023-08-06T00:52:21;16.60;99.90
41471;DHT22;27211;51.220;5.308;2023-08-06T00:54:48;16.70;99.90
41471;DHT22;27211;51.220;5.308;2023-08-06T00:57:14;16.60;99.90
41471;DHT22;27211;51.220;5.308;2023-08-06T00:59:39;16.60;99.90
41471;DHT22;27211;51.220;5.308;2023-08-06T01:02:05;16.60;99.90
41471;DHT22;27211;51.220;5.308;2023-08-06T01:04:31;16.80;99.90
41471;DHT22;27211;51.220;5.308;2023-08-06T01:07:05;16.70;99.90
41471;DHT22;27211;51.220;5.308;2023-08-06T01:09:39;17.10;99.90
41471;DHT22;27211;51.220;5.308;2023-08-06T01:17:18;17.00;99.90
41471;DHT22;27211;51.220;5.308;2023-08-06T01:19:44;17.20;99.90
41471;DHT22;27211;51.220;5.308;2023-08-06T01:22:10;16.90;99.90
41471;DHT22;27211;51.220;5.308;2023-08-06T01:24:36;16.90;99.90
41471;DHT22;27211;51.220;5.308;2023-08-06T01:29:58;17.00;99.90
41471;DHT22;27211;51.220;5.308;2023-08-06T01:32:28;17.00;99.90
41471;DHT22;27211;51.220;5.308;2023-08-06T01:34:54;16.80;99.90
41471;DHT22;27211;51.220;5.308;2023-08-06T01:37:20;16.80;99.90
41471;DHT22;27211;51.220;5.308;2023-08-06T01:39:46;16.80;99.90
41471;DHT22;27211;51.220;5.308;2023-08-06T01:42:12;16.80;99.90
41471;DHT22;27211;51.220;5.308;2023-08-06T01:44:37;16.60;99.90
41471;DHT22;27211;51.220;5.308;2023-08-06T01:47:03;16.30;99.90
41471;DHT22;27211;51.220;5.308;2023-08-06T01:49:29;16.20;99.90
41471;DHT22;27211;51.220;5.308;2023-08-06T01:51:55;16.70;99.90
41471;DHT22;27211;51.220;5.308;2023-08-06T01:54:21;16.70;99.90
41471;DHT22;27211;51.220;5.308;2023-08-06T01:56:48;16.40;99.90
41471;DHT22;27211;51.220;5.308;2023-08-06T01:59:14;16.30;99.90
41471;DHT22;27211;51.220;5.308;2023-08-06T02:01:40;16.30;99.90
41471;DHT22;27211;51.220;5.308;2023-08-06T02:04:05;16.20;99.90
41471;DHT22;27211;51.220;5.308;2023-08-06T02:06:31;16.10;99.90
41471;DHT22;27211;51.220;5.308;2023-08-06T02:08:57;16.10;99.90
41471;DHT22;27211;51.220;5.308;2023-08-06T02:11:23;16.10;99.90
41471;DHT22;27211;51.220;5.308;2023-08-06T02:13:48;16.20;99.90
41471;DHT22;27211;51.220;5.308;2023-08-06T02:16:14;16.40;99.90
41471;DHT22;27211;51.220;5.308;2023-08-06T02:18:40;16.40;99.90
41471;DHT22;27211;51.220;5.308;2023-08-06T02:21:06;16.30;99.90
41471;DHT22;27211;51.220;5.308;2023-08-06T02:23:31;16.20;99.90
41471;DHT22;27211;51.220;5.308;2023-08-06T02:26:00;16.20;99.90
41471;DHT22;27211;51.220;5.308;2023-08-06T02:28:27;16.10;99.90
41471;DHT22;27211;51.220;5.308;2023-08-06T02:30:53;16.10;99.90
41471;DHT22;27211;51.220;5.308;2023-08-06T02:33:18;16.00;99.90
41471;DHT22;27211;51.220;5.308;2023-08-06T02:35:44;16.00;99.90
41471;DHT22;27211;51.220;5.308;2023-08-06T02:38:10;16.10;99.90
41471;DHT22;27211;51.220;5.308;2023-08-06T02:40:36;16.60;99.90
41471;DHT22;27211;51.220;5.308;2023-08-06T02:43:01;16.50;99.90
41471;DHT22;27211;51.220;5.308;2023-08-06T02:45:27;16.30;99.90
41471;DHT22;27211;51.220;5.308;2023-08-06T02:47:54;16.20;99.90
41471;DHT22;27211;51.220;5.308;2023-08-06T02:50:19;16.10;99.90
41471;DHT22;27211;51.220;5.308;2023-08-06T02:52:45;16.30;99.90
41471;DHT22;27211;51.220;5.308;2023-08-06T02:55:11;16.50;99.90
41471;DHT22;27211;51.220;5.308;2023-08-06T02:57:36;16.30;99.90
41471;DHT22;27211;51.220;5.308;2023-08-06T03:00:02;16.20;99.90
41471;DHT22;27211;51.220;5.308;2023-08-06T03:02:28;16.10;99.90
41471;DHT22;27211;51.220;5.308;2023-08-06T03:04:53;16.40;99.90
41471;DHT22;27211;51.220;5.308;2023-08-06T03:07:19;16.40;99.90
41471;DHT22;27211;51.220;5.308;2023-08-06T03:09:48;16.40;99.90
41471;DHT22;27211;51.220;5.308;2023-08-06T03:12:14;16.70;99.90
41471;DHT22;27211;51.220;5.308;2023-08-06T03:14:40;16.40;99.90
41471;DHT22;27211;51.220;5.308;2023-08-06T03:17:06;16.40;99.90
41471;DHT22;27211;51.220;5.308;2023-08-06T03:19:32;16.30;99.90
41471;DHT22;27211;51.220;5.308;2023-08-06T03:21:58;16.30;99.90
41471;DHT22;27211;51.220;5.308;2023-08-06T03:24:23;16.50;99.90
41471;DHT22;27211;51.220;5.308;2023-08-06T03:26:49;16.30;99.90
41471;DHT22;27211;51.220;5.308;2023-08-06T03:29:15;16.50;99.90
41471;DHT22;27211;51.220;5.308;2023-08-06T03:31:41;16.40;99.90
41471;DHT22;27211;51.220;5.308;2023-08-06T03:34:06;16.60;99.90
41471;DHT22;27211;51.220;5.308;2023-08-06T03:36:32;16.60;99.90
41471;DHT22;27211;51.220;5.308;2023-08-06T03:38:57;16.40;99.90
41471;DHT22;27211;51.220;5.308;2023-08-06T03:41:23;16.30;99.90
41471;DHT22;27211;51.220;5.308;2023-08-06T03:43:49;16.20;99.90
41471;DHT22;27211;51.220;5.308;2023-08-06T03:46:14;16.20;99.90
41471;DHT22;27211;51.220;5.308;2023-08-06T03:48:40;16.20;99.90
41471;DHT22;27211;51.220;5.308;2023-08-06T03:51:05;16.20;99.90
41471;DHT22;27211;51.220;5.308;2023-08-06T03:53:31;16.30;99.90
41471;DHT22;27211;51.220;5.308;2023-08-06T03:55:59;16.30;99.90
41471;DHT22;27211;51.220;5.308;2023-08-06T03:58:26;16.20;99.90
41471;DHT22;27211;51.220;5.308;2023-08-06T04:01:01;16.10;99.90
41471;DHT22;27211;51.220;5.308;2023-08-06T04:03:27;16.10;99.90
41471;DHT22;27211;51.220;5.308;2023-08-06T04:05:53;16.10;99.90
41471;DHT22;27211;51.220;5.308;2023-08-06T04:08:19;16.10;99.90
41471;DHT22;27211;51.220;5.308;2023-08-06T04:10:44;16.20;99.90
41471;DHT22;27211;51.220;5.308;2023-08-06T04:13:10;16.20;99.90
41471;DHT22;27211;51.220;5.308;2023-08-06T04:15:36;16.30;99.90
41471;DHT22;27211;51.220;5.308;2023-08-06T04:18:02;16.30;99.90
41471;DHT22;27211;51.220;5.308;2023-08-06T04:20:28;16.30;99.90
41471;DHT22;27211;51.220;5.308;2023-08-06T04:22:54;16.40;99.90
41471;DHT22;27211;51.220;5.308;2023-08-06T04:25:20;16.30;99.90
41471;DHT22;27211;51.220;5.308;2023-08-06T04:27:46;16.30;99.90
41471;DHT22;27211;51.220;5.308;2023-08-06T04:30:12;16.30;99.90
41471;DHT22;27211;51.220;5.308;2023-08-06T04:32:38;16.30;99.90
41471;DHT22;27211;51.220;5.308;2023-08-06T04:35:04;16.40;99.90
41471;DHT22;27211;51.220;5.308;2023-08-06T04:37:30;16.30;99.90
41471;DHT22;27211;51.220;5.308;2023-08-06T04:39:56;16.30;99.90
41471;DHT22;27211;51.220;5.308;2023-08-06T04:42:22;16.30;99.90
41471;DHT22;27211;51.220;5.308;2023-08-06T04:44:48;16.30;99.90
41471;DHT22;27211;51.220;5.308;2023-08-06T04:47:13;16.40;99.90
41471;DHT22;27211;51.220;5.308;2023-08-06T04:49:39;16.40;99.90
41471;DHT22;27211;51.220;5.308;2023-08-06T04:52:05;16.30;99.90
41471;DHT22;27211;51.220;5.308;2023-08-06T04:54:31;16.40;99.90
41471;DHT22;27211;51.220;5.308;2023-08-06T04:56:56;16.50;99.90
41471;DHT22;27211;51.220;5.308;2023-08-06T04:59:22;16.60;99.90
41471;DHT22;27211;51.220;5.308;2023-08-06T05:01:48;16.80;99.90
41471;DHT22;27211;51.220;5.308;2023-08-06T05:04:13;16.70;99.90
41471;DHT22;27211;51.220;5.308;2023-08-06T05:06:39;16.70;99.90
41471;DHT22;27211;51.220;5.308;2023-08-06T05:09:05;16.80;99.90
41471;DHT22;27211;51.220;5.308;2023-08-06T05:11:31;16.90;99.90
41471;DHT22;27211;51.220;5.308;2023-08-06T05:13:57;17.10;99.90
41471;DHT22;27211;51.220;5.308;2023-08-06T05:16:23;16.90;99.90
41471;DHT22;27211;51.220;5.308;2023-08-06T05:18:49;16.90;99.90
41471;DHT22;27211;51.220;5.308;2023-08-06T05:21:15;16.80;99.90
41471;DHT22;27211;51.220;5.308;2023-08-06T05:23:41;17.00;99.90
41471;DHT22;27211;51.220;5.308;2023-08-06T05:26:08;16.90;99.90
41471;DHT22;27211;51.220;5.308;2023-08-06T05:28:34;16.90;99.90
41471;DHT22;27211;51.220;5.308;2023-08-06T05:31:03;17.00;99.90
41471;DHT22;27211;51.220;5.308;2023-08-06T05:33:29;16.90;99.90
41471;DHT22;27211;51.220;5.308;2023-08-06T05:35:54;16.70;99.90
41471;DHT22;27211;51.220;5.308;2023-08-06T05:38:20;16.60;99.90
41471;DHT22;27211;51.220;5.308;2023-08-06T05:40:46;16.60;99.90
41471;DHT22;27211;51.220;5.308;2023-08-06T05:43:12;16.90;99.90
41471;DHT22;27211;51.220;5.308;2023-08-06T05:45:38;16.90;99.90
41471;DHT22;27211;51.220;5.308;2023-08-06T05:48:04;16.90;99.90
41471;DHT22;27211;51.220;5.308;2023-08-06T05:50:30;17.00;99.90
41471;DHT22;27211;51.220;5.308;2023-08-06T05:52:55;17.00;99.90
41471;DHT22;27211;51.220;5.308;2023-08-06T05:55:21;17.00;99.90
41471;DHT22;27211;51.220;5.308;2023-08-06T05:57:47;17.10;99.90
41471;DHT22;27211;51.220;5.308;2023-08-06T06:00:13;17.30;99.90
41471;DHT22;27211;51.220;5.308;2023-08-06T06:02:39;17.10;99.90
41471;DHT22;27211;51.220;5.308;2023-08-06T06:05:04;17.10;99.90
41471;DHT22;27211;51.220;5.308;2023-08-06T06:07:30;17.00;99.90
41471;DHT22;27211;51.220;5.308;2023-08-06T06:09:55;16.80;99.90
41471;DHT22;27211;51.220;5.308;2023-08-06T06:12:21;16.80;99.90
41471;DHT22;27211;51.220;5.308;2023-08-06T06:14:47;16.80;99.90
41471;DHT22;27211;51.220;5.308;2023-08-06T06:17:13;16.80;99.90
41471;DHT22;27211;51.220;5.308;2023-08-06T06:19:39;16.50;99.90
41471;DHT22;27211;51.220;5.308;2023-08-06T06:22:05;16.30;99.90
41471;DHT22;27211;51.220;5.308;2023-08-06T06:24:30;16.00;99.90
41471;DHT22;27211;51.220;5.308;2023-08-06T06:26:57;15.80;99.90
41471;DHT22;27211;51.220;5.308;2023-08-06T06:29:23;15.70;99.90
41471;DHT22;27211;51.220;5.308;2023-08-06T06:31:48;15.50;99.90
41471;DHT22;27211;51.220;5.308;2023-08-06T06:34:14;15.30;99.90
41471;DHT22;27211;51.220;5.308;2023-08-06T06:36:40;15.10;99.90
41471;DHT22;27211;51.220;5.308;2023-08-06T06:39:06;15.00;99.90
41471;DHT22;27211;51.220;5.308;2023-08-06T06:41:33;15.10;99.90
41471;DHT22;27211;51.220;5.308;2023-08-06T06:43:59;15.20;99.90
41471;DHT22;27211;51.220;5.308;2023-08-06T06:46:24;15.20;99.90
41471;DHT22;27211;51.220;5.308;2023-08-06T06:48:50;15.00;99.90
41471;DHT22;27211;51.220;5.308;2023-08-06T06:51:16;14.90;99.90
41471;DHT22;27211;51.220;5.308;2023-08-06T06:53:41;15.00;99.90
41471;DHT22;27211;51.220;5.308;2023-08-06T06:56:07;14.90;99.90
41471;DHT22;27211;51.220;5.308;2023-08-06T06:58:33;15.00;99.90
41471;DHT22;27211;51.220;5.308;2023-08-06T07:00:58;14.90;99.90
41471;DHT22;27211;51.220;5.308;2023-08-06T07:03:24;15.00;99.90
41471;DHT22;27211;51.220;5.308;2023-08-06T07:05:50;15.00;99.90
41471;DHT22;27211;51.220;5.308;2023-08-06T07:08:15;15.00;99.90
41471;DHT22;27211;51.220;5.308;2023-08-06T07:10:42;15.00;99.90
41471;DHT22;27211;51.220;5.308;2023-08-06T07:13:08;15.00;99.90
41471;DHT22;27211;51.220;5.308;2023-08-06T07:15:33;15.10;99.90
41471;DHT22;27211;51.220;5.308;2023-08-06T07:18:00;15.10;99.90
41471;DHT22;27211;51.220;5.308;2023-08-06T07:20:26;15.10;99.90
41471;DHT22;27211;51.220;5.308;2023-08-06T07:22:54;15.10;99.90
41471;DHT22;27211;51.220;5.308;2023-08-06T07:25:20;15.10;99.90
41471;DHT22;27211;51.220;5.308;2023-08-06T07:27:45;15.00;99.90
41471;DHT22;27211;51.220;5.308;2023-08-06T07:30:15;15.00;99.90
41471;DHT22;27211;51.220;5.308;2023-08-06T07:32:40;15.10;99.90
41471;DHT22;27211;51.220;5.308;2023-08-06T07:35:06;15.20;99.90
41471;DHT22;27211;51.220;5.308;2023-08-06T07:37:33;15.20;99.90
41471;DHT22;27211;51.220;5.308;2023-08-06T07:40:01;15.20;99.90
41471;DHT22;27211;51.220;5.308;2023-08-06T07:42:27;15.20;99.90
41471;DHT22;27211;51.220;5.308;2023-08-06T07:44:56;15.30;99.90
41471;DHT22;27211;51.220;5.308;2023-08-06T07:47:22;15.20;99.90
41471;DHT22;27211;51.220;5.308;2023-08-06T07:49:48;15.20;99.90
41471;DHT22;27211;51.220;5.308;2023-08-06T07:52:14;15.10;99.90
41471;DHT22;27211;51.220;5.308;2023-08-06T07:54:39;15.10;99.90
41471;DHT22;27211;51.220;5.308;2023-08-06T07:57:05;15.10;99.90
41471;DHT22;27211;51.220;5.308;2023-08-06T07:59:31;15.10;99.90
41471;DHT22;27211;51.220;5.308;2023-08-06T08:01:57;15.10;99.90
41471;DHT22;27211;51.220;5.308;2023-08-06T08:04:23;15.10;99.90
41471;DHT22;27211;51.220;5.308;2023-08-06T08:06:49;15.10;99.90
41471;DHT22;27211;51.220;5.308;2023-08-06T08:09:15;15.10;99.90
41471;DHT22;27211;51.220;5.308;2023-08-06T08:11:41;15.10;99.90
41471;DHT22;27211;51.220;5.308;2023-08-06T08:14:06;15.10;99.90
41471;DHT22;27211;51.220;5.308;2023-08-06T08:16:32;15.10;99.90
41471;DHT22;27211;51.220;5.308;2023-08-06T08:18:58;15.20;99.90
41471;DHT22;27211;51.220;5.308;2023-08-06T08:21:24;15.10;99.90
41471;DHT22;27211;51.220;5.308;2023-08-06T08:23:50;15.20;99.90
41471;DHT22;27211;51.220;5.308;2023-08-06T08:26:16;15.20;99.90
41471;DHT22;27211;51.220;5.308;2023-08-06T08:28:41;15.30;99.90
41471;DHT22;27211;51.220;5.308;2023-08-06T08:31:10;15.30;99.90
41471;DHT22;27211;51.220;5.308;2023-08-06T08:33:37;15.30;99.90
41471;DHT22;27211;51.220;5.308;2023-08-06T08:36:02;15.40;99.90
41471;DHT22;27211;51.220;5.308;2023-08-06T08:38:28;15.20;99.90
41471;DHT22;27211;51.220;5.308;2023-08-06T08:40:54;15.30;99.90
41471;DHT22;27211;51.220;5.308;2023-08-06T08:43:21;15.50;99.90
41471;DHT22;27211;51.220;5.308;2023-08-06T08:45:46;15.50;99.90
41471;DHT22;27211;51.220;5.308;2023-08-06T08:48:15;15.60;99.90
41471;DHT22;27211;51.220;5.308;2023-08-06T08:50:42;15.70;99.90
41471;DHT22;27211;51.220;5.308;2023-08-06T08:53:08;15.70;99.90
41471;DHT22;27211;51.220;5.308;2023-08-06T08:55:35;15.80;99.90
41471;DHT22;27211;51.220;5.308;2023-08-06T08:58:01;15.80;99.90
41471;DHT22;27211;51.220;5.308;2023-08-06T09:00:27;15.80;99.90
41471;DHT22;27211;51.220;5.308;2023-08-06T09:02:53;15.80;99.90
41471;DHT22;27211;51.220;5.308;2023-08-06T09:05:19;16.00;99.90
41471;DHT22;27211;51.220;5.308;2023-08-06T09:07:47;15.90;99.90
41471;DHT22;27211;51.220;5.308;2023-08-06T09:10:14;15.90;99.90
41471;DHT22;27211;51.220;5.308;2023-08-06T09:12:43;15.90;99.90
41471;DHT22;27211;51.220;5.308;2023-08-06T09:15:08;16.00;99.90
41471;DHT22;27211;51.220;5.308;2023-08-06T09:17:35;16.10;99.90
41471;DHT22;27211;51.220;5.308;2023-08-06T09:20:08;16.10;99.90
41471;DHT22;27211;51.220;5.308;2023-08-06T09:22:34;15.80;99.90
41471;DHT22;27211;51.220;5.308;2023-08-06T09:25:03;15.80;99.90
41471;DHT22;27211;51.220;5.308;2023-08-06T09:27:31;15.80;99.90
41471;DHT22;27211;51.220;5.308;2023-08-06T09:29:57;16.00;99.90
41471;DHT22;27211;51.220;5.308;2023-08-06T09:32:22;16.10;99.90
41471;DHT22;27211;51.220;5.308;2023-08-06T09:34:54;16.20;99.90
41471;DHT22;27211;51.220;5.308;2023-08-06T09:37:21;16.10;99.90
41471;DHT22;27211;51.220;5.308;2023-08-06T09:39:46;15.90;99.90
41471;DHT22;27211;51.220;5.308;2023-08-06T09:42:14;15.90;99.90
41471;DHT22;27211;51.220;5.308;2023-08-06T09:44:40;16.00;99.90
41471;DHT22;27211;51.220;5.308;2023-08-06T09:47:06;15.90;99.90
41471;DHT22;27211;51.220;5.308;2023-08-06T09:51:57;16.20;99.90
41471;DHT22;27211;51.220;5.308;2023-08-06T09:54:25;16.20;99.90
41471;DHT22;27211;51.220;5.308;2023-08-06T09:56:55;16.20;99.90
41471;DHT22;27211;51.220;5.308;2023-08-06T09:59:21;16.30;99.90
41471;DHT22;27211;51.220;5.308;2023-08-06T10:01:47;16.40;99.90
41471;DHT22;27211;51.220;5.308;2023-08-06T10:04:15;16.60;99.90
41471;DHT22;27211;51.220;5.308;2023-08-06T10:06:46;16.60;99.90
41471;DHT22;27211;51.220;5.308;2023-08-06T10:09:12;16.70;99.90
41471;DHT22;27211;51.220;5.308;2023-08-06T10:11:38;16.90;99.90
41471;DHT22;27211;51.220;5.308;2023-08-06T10:14:11;16.80;99.90
41471;DHT22;27211;51.220;5.308;2023-08-06T10:16:39;16.70;99.90
41471;DHT22;27211;51.220;5.308;2023-08-06T10:19:05;16.80;99.90
41471;DHT22;27211;51.220;5.308;2023-08-06T10:21:32;17.00;99.90
41471;DHT22;27211;51.220;5.308;2023-08-06T10:23:58;17.30;99.90
41471;DHT22;27211;51.220;5.308;2023-08-06T10:26:25;17.30;99.90
41471;DHT22;27211;51.220;5.308;2023-08-06T10:28:50;17.30;99.90
41471;DHT22;27211;51.220;5.308;2023-08-06T10:31:16;17.20;99.90
41471;DHT22;27211;51.220;5.308;2023-08-06T10:33:48;17.60;99.90
41471;DHT22;27211;51.220;5.308;2023-08-06T10:36:14;17.80;99.90
41471;DHT22;27211;51.220;5.308;2023-08-06T10:38:47;17.70;99.90
41471;DHT22;27211;51.220;5.308;2023-08-06T10:44:09;17.80;99.90
41471;DHT22;27211;51.220;5.308;2023-08-06T10:46:35;17.90;99.90
41471;DHT22;27211;51.220;5.308;2023-08-06T10:49:02;17.80;99.90
41471;DHT22;27211;51.220;5.308;2023-08-06T10:51:28;17.80;99.90
41471;DHT22;27211;51.220;5.308;2023-08-06T10:53:54;17.90;99.90
41471;DHT22;27211;51.220;5.308;2023-08-06T10:56:21;17.80;99.90
41471;DHT22;27211;51.220;5.308;2023-08-06T10:58:51;17.70;99.90
41471;DHT22;27211;51.220;5.308;2023-08-06T11:01:17;17.70;99.90
41471;DHT22;27211;51.220;5.308;2023-08-06T11:03:44;17.90;99.90
41471;DHT22;27211;51.220;5.308;2023-08-06T11:06:10;17.70;99.90
41471;DHT22;27211;51.220;5.308;2023-08-06T11:08:36;17.50;99.90
41471;DHT22;27211;51.220;5.308;2023-08-06T11:11:11;17.60;99.90
41471;DHT22;27211;51.220;5.308;2023-08-06T11:13:38;17.60;99.90
41471;DHT22;27211;51.220;5.308;2023-08-06T11:16:05;17.60;99.90
41471;DHT22;27211;51.220;5.308;2023-08-06T11:18:31;17.60;99.90
41471;DHT22;27211;51.220;5.308;2023-08-06T11:21:00;17.50;99.90
41471;DHT22;27211;51.220;5.308;2023-08-06T11:23:26;17.70;99.90
41471;DHT22;27211;51.220;5.308;2023-08-06T11:25:53;17.80;99.90
41471;DHT22;27211;51.220;5.308;2023-08-06T11:28:19;18.00;99.90
41471;DHT22;27211;51.220;5.308;2023-08-06T11:30:47;18.00;99.90
41471;DHT22;27211;51.220;5.308;2023-08-06T11:33:12;18.10;99.90
41471;DHT22;27211;51.220;5.308;2023-08-06T11:35:38;18.00;99.90
41471;DHT22;27211;51.220;5.308;2023-08-06T11:38:05;18.00;99.90
41471;DHT22;27211;51.220;5.308;2023-08-06T11:40:31;18.00;99.90
41471;DHT22;27211;51.220;5.308;2023-08-06T11:42:57;18.10;99.90
41471;DHT22;27211;51.220;5.308;2023-08-06T11:45:26;18.20;99.90
41471;DHT22;27211;51.220;5.308;2023-08-06T11:47:52;17.80;99.90
41471;DHT22;27211;51.220;5.308;2023-08-06T11:50:25;17.70;99.90
41471;DHT22;27211;51.220;5.308;2023-08-06T11:53:01;17.50;99.90
41471;DHT22;27211;51.220;5.308;2023-08-06T11:55:27;17.00;99.90
41471;DHT22;27211;51.220;5.308;2023-08-06T11:57:54;16.80;99.90
41471;DHT22;27211;51.220;5.308;2023-08-06T12:00:20;16.80;99.90
41471;DHT22;27211;51.220;5.308;2023-08-06T12:02:48;17.00;99.90
41471;DHT22;27211;51.220;5.308;2023-08-06T12:05:15;17.00;99.90
41471;DHT22;27211;51.220;5.308;2023-08-06T12:07:44;17.20;99.90
41471;DHT22;27211;51.220;5.308;2023-08-06T12:10:12;17.40;99.90
41471;DHT22;27211;51.220;5.308;2023-08-06T12:12:38;17.40;99.90
41471;DHT22;27211;51.220;5.308;2023-08-06T12:15:05;17.30;99.90
41471;DHT22;27211;51.220;5.308;2023-08-06T12:17:31;17.10;99.90
41471;DHT22;27211;51.220;5.308;2023-08-06T12:19:57;17.20;99.90
41471;DHT22;27211;51.220;5.308;2023-08-06T12:22:23;17.40;99.90
41471;DHT22;27211;51.220;5.308;2023-08-06T12:24:48;17.50;99.90
41471;DHT22;27211;51.220;5.308;2023-08-06T12:27:14;17.70;99.90
41471;DHT22;27211;51.220;5.308;2023-08-06T12:29:42;17.80;99.90
41471;DHT22;27211;51.220;5.308;2023-08-06T12:32:10;17.70;99.90
41471;DHT22;27211;51.220;5.308;2023-08-06T12:34:37;17.60;99.90
41471;DHT22;27211;51.220;5.308;2023-08-06T12:37:03;17.40;99.90
41471;DHT22;27211;51.220;5.308;2023-08-06T12:39:30;17.60;99.90
41471;DHT22;27211;51.220;5.308;2023-08-06T12:41:56;17.80;99.90
41471;DHT22;27211;51.220;5.308;2023-08-06T12:44:23;17.70;99.90
41471;DHT22;27211;51.220;5.308;2023-08-06T12:46:50;17.80;99.90
41471;DHT22;27211;51.220;5.308;2023-08-06T12:49:15;17.70;99.90
41471;DHT22;27211;51.220;5.308;2023-08-06T12:51:42;17.50;99.90
41471;DHT22;27211;51.220;5.308;2023-08-06T12:54:08;17.30;99.90
41471;DHT22;27211;51.220;5.308;2023-08-06T12:56:34;17.10;99.90
41471;DHT22;27211;51.220;5.308;2023-08-06T12:58:59;17.10;99.90
41471;DHT22;27211;51.220;5.308;2023-08-06T13:01:26;17.20;99.90
41471;DHT22;27211;51.220;5.308;2023-08-06T13:03:51;17.40;99.90
41471;DHT22;27211;51.220;5.308;2023-08-06T13:06:17;17.70;99.90
41471;DHT22;27211;51.220;5.308;2023-08-06T13:08:45;17.70;99.90
41471;DHT22;27211;51.220;5.308;2023-08-06T13:11:11;17.50;99.90
41471;DHT22;27211;51.220;5.308;2023-08-06T13:13:38;17.50;99.90
41471;DHT22;27211;51.220;5.308;2023-08-06T13:16:04;17.60;99.90
41471;DHT22;27211;51.220;5.308;2023-08-06T13:18:29;17.50;99.90
41471;DHT22;27211;51.220;5.308;2023-08-06T13:20:56;17.60;99.90
41471;DHT22;27211;51.220;5.308;2023-08-06T13:23:22;17.40;99.90
41471;DHT22;27211;51.220;5.308;2023-08-06T13:25:48;17.10;99.90
41471;DHT22;27211;51.220;5.308;2023-08-06T13:28:13;17.10;99.90
41471;DHT22;27211;51.220;5.308;2023-08-06T13:30:40;17.00;99.90
41471;DHT22;27211;51.220;5.308;2023-08-06T13:33:07;16.90;99.90
41471;DHT22;27211;51.220;5.308;2023-08-06T13:35:33;17.00;99.90
41471;DHT22;27211;51.220;5.308;2023-08-06T13:37:59;17.20;99.90
41471;DHT22;27211;51.220;5.308;2023-08-06T13:40:25;17.30;99.90
41471;DHT22;27211;51.220;5.308;2023-08-06T13:42:51;17.20;99.90
41471;DHT22;27211;51.220;5.308;2023-08-06T13:45:16;17.20;99.90
41471;DHT22;27211;51.220;5.308;2023-08-06T13:47:42;17.30;99.90
41471;DHT22;27211;51.220;5.308;2023-08-06T13:50:08;17.20;99.90
41471;DHT22;27211;51.220;5.308;2023-08-06T13:52:33;17.10;99.90
41471;DHT22;27211;51.220;5.308;2023-08-06T13:55:01;17.10;99.90
41471;DHT22;27211;51.220;5.308;2023-08-06T13:57:27;16.90;99.90
41471;DHT22;27211;51.220;5.308;2023-08-06T13:59:53;16.90;99.90
41471;DHT22;27211;51.220;5.308;2023-08-06T14:02:18;16.90;99.90
41471;DHT22;27211;51.220;5.308;2023-08-06T14:04:44;16.70;99.90
41471;DHT22;27211;51.220;5.308;2023-08-06T14:07:10;16.70;99.90
41471;DHT22;27211;51.220;5.308;2023-08-06T14:09:36;16.70;99.90
41471;DHT22;27211;51.220;5.308;2023-08-06T14:12:02;16.80;99.90
41471;DHT22;27211;51.220;5.308;2023-08-06T14:14:28;16.70;99.90
41471;DHT22;27211;51.220;5.308;2023-08-06T14:16:54;16.90;99.90
41471;DHT22;27211;51.220;5.308;2023-08-06T14:19:20;17.10;99.90
41471;DHT22;27211;51.220;5.308;2023-08-06T14:21:46;17.40;99.90
41471;DHT22;27211;51.220;5.308;2023-08-06T14:24:12;17.70;99.90
41471;DHT22;27211;51.220;5.308;2023-08-06T14:26:38;18.00;99.90
41471;DHT22;27211;51.220;5.308;2023-08-06T14:29:04;18.20;99.90
41471;DHT22;27211;51.220;5.308;2023-08-06T14:31:30;18.40;99.90
41471;DHT22;27211;51.220;5.308;2023-08-06T14:33:55;18.40;99.90
41471;DHT22;27211;51.220;5.308;2023-08-06T14:36:21;18.50;99.90
41471;DHT22;27211;51.220;5.308;2023-08-06T14:38:47;18.40;99.90
41471;DHT22;27211;51.220;5.308;2023-08-06T14:41:12;18.20;99.90
41471;DHT22;27211;51.220;5.308;2023-08-06T14:43:38;18.00;99.90
41471;DHT22;27211;51.220;5.308;2023-08-06T14:46:04;17.70;99.90
41471;DHT22;27211;51.220;5.308;2023-08-06T14:48:32;17.70;99.90
41471;DHT22;27211;51.220;5.308;2023-08-06T14:50:58;17.40;99.90
41471;DHT22;27211;51.220;5.308;2023-08-06T14:53:24;17.40;99.90
41471;DHT22;27211;51.220;5.308;2023-08-06T14:55:50;17.70;99.90
41471;DHT22;27211;51.220;5.308;2023-08-06T14:58:15;17.90;99.90
41471;DHT22;27211;51.220;5.308;2023-08-06T15:00:41;18.00;99.90
41471;DHT22;27211;51.220;5.308;2023-08-06T15:03:07;18.20;99.90
41471;DHT22;27211;51.220;5.308;2023-08-06T15:05:32;18.00;99.90
41471;DHT22;27211;51.220;5.308;2023-08-06T15:07:59;17.80;99.90
41471;DHT22;27211;51.220;5.308;2023-08-06T15:10:25;17.60;99.90
41471;DHT22;27211;51.220;5.308;2023-08-06T15:12:50;17.70;99.90
41471;DHT22;27211;51.220;5.308;2023-08-06T15:15:16;17.50;99.90
41471;DHT22;27211;51.220;5.308;2023-08-06T15:17:42;17.30;99.90
41471;DHT22;27211;51.220;5.308;2023-08-06T15:20:08;17.20;99.90
41471;DHT22;27211;51.220;5.308;2023-08-06T15:22:34;17.20;99.90
41471;DHT22;27211;51.220;5.308;2023-08-06T15:25:02;17.10;99.90
41471;DHT22;27211;51.220;5.308;2023-08-06T15:27:28;17.00;99.90
41471;DHT22;27211;51.220;5.308;2023-08-06T15:29:54;16.90;99.90
41471;DHT22;27211;51.220;5.308;2023-08-06T15:32:19;17.00;99.90
41471;DHT22;27211;51.220;5.308;2023-08-06T15:34:46;17.00;99.90
41471;DHT22;27211;51.220;5.308;2023-08-06T15:37:12;16.90;99.90